CYHZ/YHZ METAR and TAF weather

Enter ICAO airport designator
Station Type Date Time Source
CYHZ METAR 2020/04/06 18:00 UTC NOAA

CYHZ 061800Z 29013G23KT 15SM FEW020 FEW280 10/M07 A2968 RMK CU1CI1 SLP057


Station Type Date Time Source
CYHZ Decoded METAR 2020/04/06 18:00 UTC NOAA

Halifax International Airport , Canada (CYHZ) 44-53N 063-30W
Apr 06, 2020 - 02:00 PM EDT / 2020.04.06 1800 UTC
Wind: from the WNW (290 degrees) at 15 MPH (13 KT) gusting to 26 MPH (23 KT):0
Visibility: 15 mile(s):0
Sky conditions: mostly clear
Temperature: 50 F (10 C)
Dew Point: 19 F (-7 C)
Relative Humidity: 29%
Pressure (altimeter): 29.68 in. Hg (1005 hPa)
ob: CYHZ 061800Z 29013G23KT 15SM FEW020 FEW280 10/M07 A2968 RMK CU1CI1 SLP057
cycle: 18

Station Type Date Time Source
CYHZ TAF 2020/04/06 18:42 UTC NOAA

TAF CYHZ 061739Z 0618/0718 29015G25KT P6SM FEW020 FEW250
BECMG 0621/0623 30012G22KT
FM062300 30012G22KT P6SM BKN040
TEMPO 0701/0704 P6SM -SHRA
FM070600 29010G20KT P6SM BKN020
FM071100 31012G22KT P6SM BKN030
FM071500 31012G22KT P6SM BKN040
RMK NXT FCST BY 062100Z

Example: see airport list